Riversville, Missouri
Current Conditions -  °F | °C
As of 10:54 AM on Thursday 23 Oct 2014 (Local Time) from KCOU Reporting Station
Broken Clouds Broken Clouds  
Wind Chill: 57°   Ceiling: 10000
Heat Index: 57°   Visibility: 10mi
Dew Point: 47°   Wind: 8mph
Humidity: 69%   Direction: 160°SSE
Pressure: 30.15"   Gusts: NA
Location:  39.1882°N, 91.8924°W
Report Text: KCOU 231554Z 16007KT 10SM BKN100 14/08 A3015 RMK AO2 SLP208 T01390083
Loading
Personal Weather Stations






























Interactive Weather Map
Tropical Storm Tracking
New forecast layout! Learn more

10-Day Weather Forecast

Advertisements
Track Severe Weather on mobile